createdAt,value
2022-10-12T00:01:35.562Z,13.33
2022-10-12T00:06:40.273Z,15.40
2022-10-12T00:11:59.697Z,18.27
2022-10-12T00:17:15.342Z,15.53
2022-10-12T00:22:29.513Z,14.13
2022-10-12T00:27:47.652Z,16.23
2022-10-12T00:33:00.144Z,13.47
2022-10-12T00:38:06.662Z,14.23
2022-10-12T00:43:30.979Z,12.87
2022-10-12T00:48:45.912Z,11.97
2022-10-12T00:54:00.858Z,13.33
2022-10-12T00:59:31.152Z,15.23
2022-10-12T01:04:49.238Z,13.20
2022-10-12T01:10:02.585Z,14.77
2022-10-12T01:15:17.942Z,12.07
2022-10-12T01:21:03.368Z,10.93
2022-10-12T01:26:58.390Z,12.10
2022-10-12T01:32:16.302Z,12.80
2022-10-12T01:37:53.826Z,16.57
2022-10-12T01:43:36.934Z,13.77
2022-10-12T01:48:53.522Z,16.70
2022-10-12T01:54:24.422Z,14.97
2022-10-12T01:59:58.516Z,12.60
2022-10-12T02:05:39.836Z,12.70
2022-10-12T02:11:00.192Z,12.27
2022-10-12T02:16:23.512Z,13.87
2022-10-12T02:21:44.858Z,16.77
2022-10-12T02:26:57.219Z,15.60
2022-10-12T02:32:09.920Z,13.57
2022-10-12T02:37:27.755Z,12.57
2022-10-12T02:43:08.761Z,12.50
2022-10-12T02:48:12.785Z,12.00
2022-10-12T02:53:33.856Z,12.87
2022-10-12T02:58:42.138Z,14.83
2022-10-12T03:04:01.123Z,9.27
2022-10-12T03:09:14.664Z,9.47
2022-10-12T03:14:23.927Z,12.33
2022-10-12T03:19:38.192Z,13.13
2022-10-12T03:30:19.680Z,12.60
2022-10-12T03:35:32.967Z,13.37
2022-10-12T03:40:44.250Z,10.43
2022-10-12T03:45:54.524Z,10.60
2022-10-12T03:51:09.932Z,10.20
2022-10-12T03:56:24.966Z,9.70
2022-10-12T04:01:32.563Z,8.17
2022-10-12T04:06:42.360Z,9.20
2022-10-12T04:11:58.045Z,8.10
2022-10-12T04:17:09.723Z,8.40
2022-10-12T04:22:14.053Z,8.30
2022-10-12T04:27:25.694Z,10.47
2022-10-12T04:32:33.671Z,8.67
2022-10-12T04:43:14.104Z,13.00
2022-10-12T04:48:32.884Z,10.10
2022-10-12T04:59:28.542Z,7.43
2022-10-12T05:04:42.950Z,7.20
2022-10-12T05:10:12.855Z,8.50
2022-10-12T05:15:33.463Z,19.47
2022-10-12T05:20:38.779Z,9.80
2022-10-12T05:25:49.467Z,12.97
2022-10-12T05:31:19.336Z,12.13
2022-10-12T05:36:29.168Z,13.07
2022-10-12T05:41:44.464Z,9.27
2022-10-12T05:46:51.363Z,9.43
2022-10-12T05:51:57.954Z,13.70
2022-10-12T05:57:13.573Z,10.40
2022-10-12T06:02:24.885Z,13.37
2022-10-12T06:07:54.883Z,11.20
2022-10-12T06:13:05.807Z,17.00
2022-10-12T06:18:45.781Z,12.13
2022-10-12T06:24:06.221Z,16.10
2022-10-12T06:29:17.086Z,9.63
2022-10-12T06:34:42.888Z,15.67
2022-10-12T06:40:11.299Z,10.43
2022-10-12T06:45:22.003Z,7.70
2022-10-12T06:50:43.781Z,10.57
2022-10-12T06:55:54.747Z,14.33
2022-10-12T07:06:42.798Z,11.87
2022-10-12T07:12:13.113Z,14.17
2022-10-12T07:17:37.396Z,12.57
2022-10-12T07:22:52.430Z,11.50
2022-10-12T07:27:56.444Z,9.20
2022-10-12T07:33:02.940Z,12.37
2022-10-12T07:38:17.969Z,13.53
2022-10-12T07:43:38.121Z,13.03
2022-10-12T07:48:50.082Z,8.07
2022-10-12T07:54:02.539Z,8.90
2022-10-12T07:59:08.806Z,6.70
2022-10-12T08:04:41.230Z,9.97
2022-10-12T08:09:53.130Z,6.83
2022-10-12T08:14:59.809Z,8.20
2022-10-12T08:20:07.021Z,13.23
2022-10-12T08:25:21.680Z,10.00
2022-10-12T08:30:44.654Z,8.73
2022-10-12T08:36:09.080Z,11.43
2022-10-12T08:41:32.462Z,11.57
2022-10-12T08:46:53.471Z,12.47
2022-10-12T08:52:11.467Z,13.33
2022-10-12T08:57:21.600Z,5.55
2022-10-12T09:02:56.401Z,8.73
2022-10-12T09:08:07.367Z,8.00
2022-10-12T09:13:23.786Z,8.07
2022-10-12T09:18:43.592Z,7.32
2022-10-12T09:23:48.249Z,8.40
2022-10-12T09:29:00.444Z,8.25
2022-10-12T09:34:08.582Z,8.93
2022-10-12T09:39:32.728Z,5.90
2022-10-12T09:44:44.826Z,9.57
2022-10-12T09:49:55.385Z,6.88
2022-10-12T09:55:07.774Z,7.30
2022-10-12T10:00:36.490Z,6.70
2022-10-12T10:05:43.611Z,10.45
2022-10-12T10:10:58.179Z,6.47
2022-10-12T10:16:16.520Z,7.50
2022-10-12T10:21:36.443Z,9.57
2022-10-12T10:27:00.843Z,5.30
2022-10-12T10:32:45.822Z,6.93
2022-10-12T10:38:02.776Z,6.40
2022-10-12T10:43:25.624Z,7.60
2022-10-12T10:48:58.130Z,10.63
2022-10-12T10:54:18.653Z,9.30
2022-10-12T10:59:36.198Z,8.52
2022-10-12T11:04:54.761Z,4.60
2022-10-12T11:10:02.186Z,6.38
2022-10-12T11:15:23.618Z,7.75
2022-10-12T11:20:41.515Z,8.75
2022-10-12T11:26:02.860Z,7.28
2022-10-12T11:31:17.462Z,5.97
2022-10-12T11:36:33.595Z,5.65
2022-10-12T11:42:09.823Z,10.25
2022-10-12T11:47:36.393Z,4.88
2022-10-12T11:52:55.340Z,4.85
2022-10-12T11:58:12.544Z,5.90
2022-10-12T12:03:29.497Z,10.07
2022-10-12T12:09:14.140Z,9.35
2022-10-12T12:15:16.602Z,9.30
2022-10-12T12:20:58.710Z,8.82
2022-10-12T12:26:20.836Z,9.35
2022-10-12T12:31:38.868Z,7.10
2022-10-12T12:36:48.429Z,8.68
2022-10-12T12:42:12.432Z,6.80
2022-10-12T12:52:52.198Z,8.68
2022-10-12T12:58:20.420Z,6.78
2022-10-12T13:04:00.164Z,7.57
2022-10-12T13:09:25.568Z,8.35
2022-10-12T13:15:08.742Z,6.95
2022-10-12T13:20:43.220Z,9.02
2022-10-12T13:26:06.448Z,5.85
2022-10-12T13:31:24.359Z,5.97
2022-10-12T13:36:33.008Z,5.45
2022-10-12T13:41:43.460Z,5.60
2022-10-12T13:47:10.111Z,6.00
2022-10-12T13:52:30.939Z,4.55
2022-10-12T13:57:50.758Z,6.43
2022-10-12T14:03:03.477Z,7.07
2022-10-12T14:08:17.409Z,8.10
2022-10-12T14:13:32.214Z,6.15
2022-10-12T14:18:41.538Z,7.50
2022-10-12T14:23:53.392Z,6.90
2022-10-12T14:29:02.463Z,5.78
2022-10-12T14:34:37.294Z,7.05
2022-10-12T14:39:44.145Z,8.43
2022-10-12T14:44:50.673Z,6.97
2022-10-12T14:50:01.631Z,4.60
2022-10-12T14:55:13.644Z,5.53
2022-10-12T15:00:25.857Z,6.10
2022-10-12T15:05:44.845Z,6.82
2022-10-12T15:11:09.507Z,6.88
2022-10-12T15:16:29.474Z,4.15
2022-10-12T15:21:42.536Z,9.43
2022-10-12T15:27:01.405Z,8.65
2022-10-12T15:32:08.765Z,8.77
2022-10-12T15:37:31.996Z,5.47
2022-10-12T15:42:39.504Z,6.93
2022-10-12T15:47:53.930Z,6.95
2022-10-12T15:53:27.774Z,7.25
2022-10-12T15:58:41.159Z,6.15
2022-10-12T16:03:53.563Z,7.18
2022-10-12T16:09:05.497Z,3.72
2022-10-12T16:14:14.546Z,8.55
2022-10-12T16:19:19.591Z,4.78
2022-10-12T16:24:32.258Z,8.38
2022-10-12T16:29:41.261Z,9.75
2022-10-12T16:34:54.659Z,9.38
2022-10-12T16:40:05.637Z,15.02
2022-10-12T16:45:15.986Z,7.47
2022-10-12T16:50:45.574Z,12.90
2022-10-12T16:55:54.778Z,27.05
2022-10-12T17:01:14.602Z,31.48
2022-10-12T17:06:21.770Z,30.98
2022-10-12T17:11:33.164Z,27.27
2022-10-12T17:17:02.791Z,26.25
2022-10-12T17:22:25.116Z,15.57
2022-10-12T17:27:43.426Z,9.45
2022-10-12T17:32:59.646Z,11.90
2022-10-12T17:38:19.018Z,11.57
2022-10-12T17:43:45.888Z,13.02
2022-10-12T17:48:53.900Z,11.27
2022-10-12T17:54:02.880Z,9.88
2022-10-12T18:04:49.614Z,10.65
2022-10-12T18:10:00.576Z,12.45
2022-10-12T18:15:31.343Z,10.40
2022-10-12T18:20:46.348Z,7.65
2022-10-12T18:25:56.140Z,11.32
2022-10-12T18:31:06.583Z,11.82
2022-10-12T18:36:19.580Z,10.57
2022-10-12T18:41:29.598Z,11.68
2022-10-12T18:46:47.450Z,10.17
2022-10-12T18:52:08.340Z,12.73
2022-10-12T18:57:18.678Z,10.63
2022-10-12T19:02:25.818Z,12.13
2022-10-12T19:07:36.741Z,11.50
2022-10-12T19:12:45.650Z,12.65
2022-10-12T19:17:59.340Z,10.73
2022-10-12T19:23:07.607Z,11.00
2022-10-12T19:28:12.187Z,12.55
2022-10-12T19:33:20.744Z,13.60
2022-10-12T19:38:30.000Z,12.00
2022-10-12T19:43:43.379Z,12.02
2022-10-12T19:48:56.530Z,14.30
2022-10-12T19:54:09.546Z,10.68
2022-10-12T20:06:18.014Z,12.98
2022-10-12T20:11:26.770Z,16.97
2022-10-12T20:16:35.765Z,14.13
2022-10-12T20:21:42.454Z,13.27
2022-10-12T20:26:47.353Z,12.43
2022-10-12T20:32:05.006Z,12.17
2022-10-12T20:37:22.186Z,14.20
2022-10-12T20:42:30.575Z,12.50
2022-10-12T20:47:37.861Z,12.20
2022-10-12T20:52:48.488Z,12.43
2022-10-12T20:57:56.998Z,19.57
2022-10-12T21:03:03.393Z,15.03
2022-10-12T21:08:16.065Z,14.80
2022-10-12T21:13:28.749Z,10.53
2022-10-12T21:18:38.511Z,15.33
2022-10-12T21:23:48.811Z,12.47
2022-10-12T21:29:03.846Z,15.77
2022-10-12T21:34:26.733Z,11.53
2022-10-12T21:39:44.595Z,11.37
2022-10-12T21:44:53.530Z,13.57
2022-10-12T21:49:59.746Z,12.93
2022-10-12T21:55:07.181Z,15.13
2022-10-12T22:00:14.674Z,10.43
2022-10-12T22:05:23.210Z,13.33
2022-10-12T22:10:40.211Z,10.17
2022-10-12T22:21:40.203Z,12.20
2022-10-12T22:27:13.396Z,11.67
2022-10-12T22:32:43.922Z,11.20
2022-10-12T22:37:51.087Z,14.03
2022-10-12T22:43:18.107Z,11.23
2022-10-12T22:48:25.306Z,11.50
2022-10-12T22:53:32.607Z,15.73
2022-10-12T22:58:46.408Z,13.50
2022-10-12T23:03:50.801Z,20.00
2022-10-12T23:09:00.459Z,11.43
2022-10-12T23:14:07.472Z,11.57
2022-10-12T23:19:18.673Z,9.30
2022-10-12T23:24:23.305Z,10.57
2022-10-12T23:29:30.248Z,12.80
2022-10-12T23:34:38.006Z,9.93
2022-10-12T23:39:45.423Z,9.63
2022-10-12T23:45:06.371Z,12.17
2022-10-12T23:50:12.222Z,11.07
2022-10-12T23:55:20.088Z,10.77
